sensor_id;sensor_type;location;lat;lon;timestamp;pressure;altitude;pressure_sealevel;temperature;humidity
35224;BME280;21367;51.930;8.112;2023-04-20T00:00:05;101469.38;;;8.00;53.55
35224;BME280;21367;51.930;8.112;2023-04-20T00:05:13;101454.66;;;8.24;53.79
35224;BME280;21367;51.930;8.112;2023-04-20T00:10:20;101427.69;;;8.29;53.48
35224;BME280;21367;51.930;8.112;2023-04-20T00:15:23;101426.22;;;8.19;53.46
35224;BME280;21367;51.930;8.112;2023-04-20T00:20:27;101424.69;;;7.68;55.32
35224;BME280;21367;51.930;8.112;2023-04-20T00:25:34;101419.94;;;8.41;53.79
35224;BME280;21367;51.930;8.112;2023-04-20T00:30:38;101426.69;;;8.27;54.92
35224;BME280;21367;51.930;8.112;2023-04-20T00:35:42;101407.00;;;8.39;55.01
35224;BME280;21367;51.930;8.112;2023-04-20T00:40:48;101396.28;;;8.31;55.02
35224;BME280;21367;51.930;8.112;2023-04-20T00:45:54;101394.41;;;8.29;55.84
35224;BME280;21367;51.930;8.112;2023-04-20T00:50:58;101385.25;;;8.19;57.18
35224;BME280;21367;51.930;8.112;2023-04-20T00:56:06;101384.59;;;8.08;58.66
35224;BME280;21367;51.930;8.112;2023-04-20T01:01:10;101369.41;;;8.11;59.69
35224;BME280;21367;51.930;8.112;2023-04-20T01:06:19;101364.34;;;7.85;61.15
35224;BME280;21367;51.930;8.112;2023-04-20T01:11:26;101350.56;;;7.96;61.64
35224;BME280;21367;51.930;8.112;2023-04-20T01:16:30;101346.47;;;8.13;61.12
35224;BME280;21367;51.930;8.112;2023-04-20T01:21:36;101334.47;;;7.99;62.96
35224;BME280;21367;51.930;8.112;2023-04-20T01:26:42;101336.97;;;7.71;65.82
35224;BME280;21367;51.930;8.112;2023-04-20T01:31:47;101325.88;;;7.44;67.97
35224;BME280;21367;51.930;8.112;2023-04-20T01:36:52;101318.22;;;7.30;69.28
35224;BME280;21367;51.930;8.112;2023-04-20T01:41:59;101325.16;;;7.19;70.90
35224;BME280;21367;51.930;8.112;2023-04-20T01:47:03;101316.56;;;6.92;72.30
35224;BME280;21367;51.930;8.112;2023-04-20T01:52:08;101313.13;;;6.92;72.97
35224;BME280;21367;51.930;8.112;2023-04-20T01:57:15;101306.22;;;6.78;73.91
35224;BME280;21367;51.930;8.112;2023-04-20T02:02:18;101302.41;;;6.84;74.52
35224;BME280;21367;51.930;8.112;2023-04-20T02:07:22;101294.41;;;6.80;74.61
35224;BME280;21367;51.930;8.112;2023-04-20T02:12:29;101297.63;;;7.02;73.62
35224;BME280;21367;51.930;8.112;2023-04-20T02:17:32;101307.13;;;6.91;74.00
35224;BME280;21367;51.930;8.112;2023-04-20T02:22:37;101302.69;;;6.89;74.86
35224;BME280;21367;51.930;8.112;2023-04-20T02:27:45;101305.91;;;6.48;75.43
35224;BME280;21367;51.930;8.112;2023-04-20T02:32:49;101297.50;;;6.49;76.49
35224;BME280;21367;51.930;8.112;2023-04-20T02:37:53;101298.44;;;6.76;75.63
35224;BME280;21367;51.930;8.112;2023-04-20T02:43:00;101291.00;;;6.54;75.83
35224;BME280;21367;51.930;8.112;2023-04-20T02:48:05;101297.34;;;6.34;77.43
35224;BME280;21367;51.930;8.112;2023-04-20T02:53:10;101290.59;;;6.23;78.07
35224;BME280;21367;51.930;8.112;2023-04-20T02:58:17;101291.47;;;6.23;77.35
35224;BME280;21367;51.930;8.112;2023-04-20T03:03:51;101285.41;;;6.46;76.95
35224;BME280;21367;51.930;8.112;2023-04-20T03:08:55;101270.84;;;6.20;78.01
35224;BME280;21367;51.930;8.112;2023-04-20T03:14:34;101272.84;;;6.24;78.84
35224;BME280;21367;51.930;8.112;2023-04-20T03:19:38;101260.81;;;6.35;77.60
35224;BME280;21367;51.930;8.112;2023-04-20T03:24:43;101270.13;;;6.60;76.76
35224;BME280;21367;51.930;8.112;2023-04-20T03:30:12;101276.53;;;6.66;76.40
35224;BME280;21367;51.930;8.112;2023-04-20T03:35:18;101255.63;;;6.72;76.60
35224;BME280;21367;51.930;8.112;2023-04-20T03:40:23;101256.75;;;6.25;78.88
35224;BME280;21367;51.930;8.112;2023-04-20T03:45:30;101249.75;;;6.48;79.29
35224;BME280;21367;51.930;8.112;2023-04-20T03:50:34;101244.78;;;6.63;78.64
35224;BME280;21367;51.930;8.112;2023-04-20T03:55:38;101252.84;;;6.31;80.22
35224;BME280;21367;51.930;8.112;2023-04-20T04:00:49;101252.69;;;6.16;82.26
35224;BME280;21367;51.930;8.112;2023-04-20T04:05:53;101244.16;;;6.15;81.48
35224;BME280;21367;51.930;8.112;2023-04-20T04:10:58;101251.84;;;6.03;83.36
35224;BME280;21367;51.930;8.112;2023-04-20T04:16:05;101250.09;;;6.02;82.96
35224;BME280;21367;51.930;8.112;2023-04-20T04:21:09;101255.31;;;6.42;82.48
35224;BME280;21367;51.930;8.112;2023-04-20T04:26:17;101254.72;;;6.08;84.47
35224;BME280;21367;51.930;8.112;2023-04-20T04:31:28;101252.09;;;6.20;83.42
35224;BME280;21367;51.930;8.112;2023-04-20T04:36:38;101250.72;;;6.12;83.31
35224;BME280;21367;51.930;8.112;2023-04-20T04:41:47;101251.31;;;5.96;83.48
35224;BME280;21367;51.930;8.112;2023-04-20T04:47:04;101264.34;;;6.12;85.19
35224;BME280;21367;51.930;8.112;2023-04-20T04:52:09;101263.81;;;6.05;85.24
35224;BME280;21367;51.930;8.112;2023-04-20T04:57:13;101267.50;;;5.85;86.07
35224;BME280;21367;51.930;8.112;2023-04-20T05:02:21;101258.50;;;6.26;85.88
35224;BME280;21367;51.930;8.112;2023-04-20T05:07:24;101268.97;;;6.68;85.06
35224;BME280;21367;51.930;8.112;2023-04-20T05:12:28;101274.16;;;5.94;88.37
35224;BME280;21367;51.930;8.112;2023-04-20T05:17:35;101275.97;;;5.72;90.34
35224;BME280;21367;51.930;8.112;2023-04-20T05:22:38;101268.00;;;5.67;91.55
35224;BME280;21367;51.930;8.112;2023-04-20T05:27:42;101263.63;;;5.90;90.29
35224;BME280;21367;51.930;8.112;2023-04-20T05:32:49;101276.81;;;5.84;90.64
35224;BME280;21367;51.930;8.112;2023-04-20T05:37:54;101277.75;;;6.21;87.78
35224;BME280;21367;51.930;8.112;2023-04-20T05:43:02;101271.25;;;6.26;89.54
35224;BME280;21367;51.930;8.112;2023-04-20T05:48:08;101273.03;;;6.02;87.89
35224;BME280;21367;51.930;8.112;2023-04-20T05:53:12;101277.94;;;5.76;90.34
35224;BME280;21367;51.930;8.112;2023-04-20T05:58:16;101282.59;;;5.70;91.62
35224;BME280;21367;51.930;8.112;2023-04-20T06:03:23;101281.94;;;5.96;90.93
35224;BME280;21367;51.930;8.112;2023-04-20T06:08:27;101282.16;;;5.64;91.83
35224;BME280;21367;51.930;8.112;2023-04-20T06:13:31;101281.59;;;5.79;92.14
35224;BME280;21367;51.930;8.112;2023-04-20T06:18:38;101280.84;;;5.80;92.79
35224;BME280;21367;51.930;8.112;2023-04-20T06:23:41;101289.06;;;5.65;91.53
35224;BME280;21367;51.930;8.112;2023-04-20T06:28:45;101278.41;;;5.70;93.06
35224;BME280;21367;51.930;8.112;2023-04-20T06:33:54;101279.81;;;5.78;91.75
35224;BME280;21367;51.930;8.112;2023-04-20T06:38:58;101273.16;;;5.92;92.29
35224;BME280;21367;51.930;8.112;2023-04-20T06:44:02;101274.28;;;5.96;91.48
35224;BME280;21367;51.930;8.112;2023-04-20T06:49:09;101289.94;;;5.77;92.89
35224;BME280;21367;51.930;8.112;2023-04-20T06:54:12;101278.81;;;5.76;93.04
35224;BME280;21367;51.930;8.112;2023-04-20T06:59:16;101277.13;;;5.52;98.71
35224;BME280;21367;51.930;8.112;2023-04-20T07:04:23;101268.16;;;5.82;97.94
35224;BME280;21367;51.930;8.112;2023-04-20T07:09:27;101264.13;;;6.59;94.09
35224;BME280;21367;51.930;8.112;2023-04-20T07:14:32;101265.69;;;6.57;91.46
35224;BME280;21367;51.930;8.112;2023-04-20T07:19:39;101266.56;;;6.58;91.39
35224;BME280;21367;51.930;8.112;2023-04-20T07:24:43;101258.41;;;7.28;88.57
35224;BME280;21367;51.930;8.112;2023-04-20T07:29:46;101275.84;;;6.69;90.04
35224;BME280;21367;51.930;8.112;2023-04-20T07:34:53;101260.13;;;6.76;89.33
35224;BME280;21367;51.930;8.112;2023-04-20T07:39:57;101261.22;;;6.41;90.02
35224;BME280;21367;51.930;8.112;2023-04-20T07:45:01;101267.81;;;6.51;89.20
35224;BME280;21367;51.930;8.112;2023-04-20T07:50:10;101270.59;;;6.29;90.75
35224;BME280;21367;51.930;8.112;2023-04-20T07:55:13;101264.53;;;6.65;88.54
35224;BME280;21367;51.930;8.112;2023-04-20T08:00:18;101257.50;;;6.88;86.86
35224;BME280;21367;51.930;8.112;2023-04-20T08:05:25;101256.03;;;6.91;87.38
35224;BME280;21367;51.930;8.112;2023-04-20T08:10:29;101263.34;;;7.12;87.12
35224;BME280;21367;51.930;8.112;2023-04-20T08:15:33;101257.81;;;7.32;84.19
35224;BME280;21367;51.930;8.112;2023-04-20T08:20:40;101257.94;;;7.34;83.22
35224;BME280;21367;51.930;8.112;2023-04-20T08:25:45;101259.50;;;7.05;84.75
35224;BME280;21367;51.930;8.112;2023-04-20T08:30:49;101258.78;;;7.61;83.10
35224;BME280;21367;51.930;8.112;2023-04-20T08:35:57;101250.38;;;8.05;82.69
35224;BME280;21367;51.930;8.112;2023-04-20T08:41:01;101252.00;;;8.03;81.46
35224;BME280;21367;51.930;8.112;2023-04-20T08:46:06;101251.19;;;8.04;80.44
35224;BME280;21367;51.930;8.112;2023-04-20T08:51:14;101254.91;;;7.68;83.32
35224;BME280;21367;51.930;8.112;2023-04-20T08:56:18;101248.66;;;7.62;81.17
35224;BME280;21367;51.930;8.112;2023-04-20T09:01:26;101261.47;;;7.23;82.70
35224;BME280;21367;51.930;8.112;2023-04-20T09:06:33;101262.63;;;7.41;83.29
35224;BME280;21367;51.930;8.112;2023-04-20T09:11:37;101262.16;;;7.47;81.56
35224;BME280;21367;51.930;8.112;2023-04-20T09:16:48;101262.81;;;7.99;79.23
35224;BME280;21367;51.930;8.112;2023-04-20T09:22:00;101261.25;;;8.29;77.87
35224;BME280;21367;51.930;8.112;2023-04-20T09:27:14;101263.63;;;8.84;74.84
35224;BME280;21367;51.930;8.112;2023-04-20T09:32:21;101251.38;;;9.39;73.55
35224;BME280;21367;51.930;8.112;2023-04-20T09:37:29;101246.38;;;9.11;73.61
35224;BME280;21367;51.930;8.112;2023-04-20T09:42:36;101253.28;;;8.67;73.73
35224;BME280;21367;51.930;8.112;2023-04-20T09:47:42;101248.78;;;9.08;74.43
35224;BME280;21367;51.930;8.112;2023-04-20T09:52:49;101251.34;;;9.08;72.86
35224;BME280;21367;51.930;8.112;2023-04-20T09:58:09;101262.22;;;9.03;73.28
35224;BME280;21367;51.930;8.112;2023-04-20T10:03:15;101257.97;;;9.04;71.92
35224;BME280;21367;51.930;8.112;2023-04-20T10:08:22;101254.41;;;9.63;72.33
35224;BME280;21367;51.930;8.112;2023-04-20T10:13:32;101249.13;;;9.76;69.96
35224;BME280;21367;51.930;8.112;2023-04-20T10:18:37;101244.59;;;10.86;67.32
35224;BME280;21367;51.930;8.112;2023-04-20T10:23:51;101240.44;;;10.22;67.91
35224;BME280;21367;51.930;8.112;2023-04-20T10:28:55;101241.47;;;11.10;67.02
35224;BME280;21367;51.930;8.112;2023-04-20T10:34:03;101238.41;;;10.00;68.01
35224;BME280;21367;51.930;8.112;2023-04-20T10:39:17;101245.84;;;9.31;69.39
35224;BME280;21367;51.930;8.112;2023-04-20T10:44:22;101246.91;;;9.82;68.14
35224;BME280;21367;51.930;8.112;2023-04-20T10:49:27;101245.44;;;9.71;69.29
35224;BME280;21367;51.930;8.112;2023-04-20T10:54:39;101234.94;;;9.83;68.45
35224;BME280;21367;51.930;8.112;2023-04-20T10:59:43;101241.22;;;9.71;69.42
35224;BME280;21367;51.930;8.112;2023-04-20T11:04:47;101245.88;;;9.95;68.51
35224;BME280;21367;51.930;8.112;2023-04-20T11:09:55;101221.22;;;11.53;65.51
35224;BME280;21367;51.930;8.112;2023-04-20T11:14:59;101226.44;;;10.65;65.44
35224;BME280;21367;51.930;8.112;2023-04-20T11:20:05;101224.38;;;10.42;65.30
35224;BME280;21367;51.930;8.112;2023-04-20T11:25:13;101223.69;;;9.81;68.01
35224;BME280;21367;51.930;8.112;2023-04-20T11:30:17;101219.94;;;10.23;67.25
35224;BME280;21367;51.930;8.112;2023-04-20T11:35:21;101224.31;;;10.40;67.61
35224;BME280;21367;51.930;8.112;2023-04-20T11:40:28;101217.38;;;10.74;64.94
35224;BME280;21367;51.930;8.112;2023-04-20T11:45:32;101217.84;;;11.19;65.43
35224;BME280;21367;51.930;8.112;2023-04-20T11:50:37;101205.53;;;13.07;59.94
35224;BME280;21367;51.930;8.112;2023-04-20T11:55:44;101197.97;;;14.27;55.82
35224;BME280;21367;51.930;8.112;2023-04-20T12:00:47;101202.31;;;12.10;59.63
35224;BME280;21367;51.930;8.112;2023-04-20T12:05:51;101201.41;;;11.52;60.69
35224;BME280;21367;51.930;8.112;2023-04-20T12:10:58;101202.53;;;11.95;60.84
35224;BME280;21367;51.930;8.112;2023-04-20T12:16:02;101204.84;;;10.98;62.39
35224;BME280;21367;51.930;8.112;2023-04-20T12:21:06;101210.44;;;10.89;62.65
35224;BME280;21367;51.930;8.112;2023-04-20T12:26:12;101205.00;;;11.01;62.20
35224;BME280;21367;51.930;8.112;2023-04-20T12:31:17;101181.75;;;11.35;61.62
35224;BME280;21367;51.930;8.112;2023-04-20T12:36:20;101184.94;;;11.11;60.72
35224;BME280;21367;51.930;8.112;2023-04-20T12:41:27;101193.06;;;11.39;61.26
35224;BME280;21367;51.930;8.112;2023-04-20T12:46:37;101184.91;;;11.47;59.39
35224;BME280;21367;51.930;8.112;2023-04-20T12:51:45;101178.63;;;12.18;59.09
35224;BME280;21367;51.930;8.112;2023-04-20T12:56:51;101165.09;;;14.49;58.12
35224;BME280;21367;51.930;8.112;2023-04-20T13:01:56;101166.25;;;12.31;56.37
35224;BME280;21367;51.930;8.112;2023-04-20T13:07:00;101169.34;;;11.83;59.51
35224;BME280;21367;51.930;8.112;2023-04-20T13:12:07;101169.91;;;11.39;61.19
35224;BME280;21367;51.930;8.112;2023-04-20T13:17:11;101174.47;;;11.83;59.69
35224;BME280;21367;51.930;8.112;2023-04-20T13:22:15;101161.28;;;10.83;61.53
35224;BME280;21367;51.930;8.112;2023-04-20T13:27:22;101163.47;;;11.29;61.18
35224;BME280;21367;51.930;8.112;2023-04-20T13:32:25;101164.50;;;11.71;59.82
35224;BME280;21367;51.930;8.112;2023-04-20T13:37:29;101166.03;;;11.29;59.86
35224;BME280;21367;51.930;8.112;2023-04-20T13:42:37;101159.44;;;13.16;57.54
35224;BME280;21367;51.930;8.112;2023-04-20T13:47:41;101148.38;;;12.55;57.07
35224;BME280;21367;51.930;8.112;2023-04-20T13:52:45;101129.84;;;13.53;55.05
35224;BME280;21367;51.930;8.112;2023-04-20T13:57:51;101127.28;;;14.51;53.70
35224;BME280;21367;51.930;8.112;2023-04-20T14:02:55;101128.66;;;14.67;53.18
35224;BME280;21367;51.930;8.112;2023-04-20T14:08:01;101123.09;;;15.69;49.56
35224;BME280;21367;51.930;8.112;2023-04-20T14:13:09;101113.47;;;15.66;48.41
35224;BME280;21367;51.930;8.112;2023-04-20T14:18:13;101123.56;;;13.45;54.38
35224;BME280;21367;51.930;8.112;2023-04-20T14:23:17;101110.78;;;14.74;51.04
35224;BME280;21367;51.930;8.112;2023-04-20T14:28:23;101106.38;;;14.46;51.48
35224;BME280;21367;51.930;8.112;2023-04-20T14:33:27;101094.59;;;13.30;52.24
35224;BME280;21367;51.930;8.112;2023-04-20T14:38:31;101089.63;;;13.84;51.85
35224;BME280;21367;51.930;8.112;2023-04-20T14:43:38;101089.47;;;15.12;49.86
35224;BME280;21367;51.930;8.112;2023-04-20T14:48:42;101087.78;;;14.84;48.85
35224;BME280;21367;51.930;8.112;2023-04-20T14:53:46;101080.47;;;13.44;50.45
35224;BME280;21367;51.930;8.112;2023-04-20T14:58:52;101084.97;;;13.50;52.52
35224;BME280;21367;51.930;8.112;2023-04-20T15:03:57;101090.16;;;12.82;53.30
35224;BME280;21367;51.930;8.112;2023-04-20T15:09:01;101089.97;;;12.78;53.91
35224;BME280;21367;51.930;8.112;2023-04-20T15:14:08;101091.56;;;11.51;55.78
35224;BME280;21367;51.930;8.112;2023-04-20T15:19:13;101097.59;;;11.15;56.98
35224;BME280;21367;51.930;8.112;2023-04-20T15:24:16;101099.31;;;11.14;56.68
35224;BME280;21367;51.930;8.112;2023-04-20T15:29:23;101095.56;;;11.07;58.24
35224;BME280;21367;51.930;8.112;2023-04-20T15:34:27;101087.25;;;11.13;57.94
35224;BME280;21367;51.930;8.112;2023-04-20T15:39:31;101083.56;;;11.45;58.43
35224;BME280;21367;51.930;8.112;2023-04-20T15:44:38;101085.47;;;11.12;59.36
35224;BME280;21367;51.930;8.112;2023-04-20T15:49:41;101096.66;;;10.75;61.75
35224;BME280;21367;51.930;8.112;2023-04-20T15:54:45;101095.81;;;10.06;62.82
35224;BME280;21367;51.930;8.112;2023-04-20T16:00:06;101091.03;;;10.30;63.49
35224;BME280;21367;51.930;8.112;2023-04-20T16:05:10;101096.28;;;9.99;63.82
35224;BME280;21367;51.930;8.112;2023-04-20T16:10:15;101091.88;;;10.47;64.01
35224;BME280;21367;51.930;8.112;2023-04-20T16:15:22;101090.75;;;10.08;66.45
35224;BME280;21367;51.930;8.112;2023-04-20T16:20:27;101093.41;;;9.93;68.16
35224;BME280;21367;51.930;8.112;2023-04-20T16:25:31;101101.31;;;9.63;69.49
35224;BME280;21367;51.930;8.112;2023-04-20T16:30:37;101105.97;;;9.54;70.94
35224;BME280;21367;51.930;8.112;2023-04-20T16:35:41;101097.38;;;9.54;70.93
35224;BME280;21367;51.930;8.112;2023-04-20T16:40:44;101097.13;;;9.49;71.77
35224;BME280;21367;51.930;8.112;2023-04-20T16:45:51;101093.38;;;9.42;71.92
35224;BME280;21367;51.930;8.112;2023-04-20T16:50:55;101095.06;;;9.42;72.58
35224;BME280;21367;51.930;8.112;2023-04-20T16:55:59;101099.53;;;9.46;72.63
35224;BME280;21367;51.930;8.112;2023-04-20T17:01:06;101091.03;;;9.31;71.93
35224;BME280;21367;51.930;8.112;2023-04-20T17:06:09;101092.41;;;9.57;72.69
35224;BME280;21367;51.930;8.112;2023-04-20T17:11:13;101093.91;;;9.37;71.77
35224;BME280;21367;51.930;8.112;2023-04-20T17:16:21;101114.56;;;9.07;72.75
35224;BME280;21367;51.930;8.112;2023-04-20T17:21:25;101118.84;;;9.39;72.49
35224;BME280;21367;51.930;8.112;2023-04-20T17:26:28;101124.84;;;9.23;72.92
35224;BME280;21367;51.930;8.112;2023-04-20T17:31:36;101123.44;;;8.97;75.43
35224;BME280;21367;51.930;8.112;2023-04-20T17:36:40;101117.16;;;8.92;75.88
35224;BME280;21367;51.930;8.112;2023-04-20T17:41:51;101126.25;;;9.02;76.23
35224;BME280;21367;51.930;8.112;2023-04-20T17:46:58;101142.03;;;8.93;77.69
35224;BME280;21367;51.930;8.112;2023-04-20T17:52:02;101154.09;;;8.50;81.92
35224;BME280;21367;51.930;8.112;2023-04-20T17:57:07;101151.34;;;8.47;83.08
35224;BME280;21367;51.930;8.112;2023-04-20T18:02:16;101144.88;;;8.39;83.20
35224;BME280;21367;51.930;8.112;2023-04-20T18:07:20;101150.88;;;8.39;82.78
35224;BME280;21367;51.930;8.112;2023-04-20T18:12:23;101153.34;;;8.38;82.66
35224;BME280;21367;51.930;8.112;2023-04-20T18:17:30;101152.19;;;8.77;80.74
35224;BME280;21367;51.930;8.112;2023-04-20T18:22:34;101142.69;;;8.45;81.01
35224;BME280;21367;51.930;8.112;2023-04-20T18:27:38;101145.34;;;8.46;80.59
35224;BME280;21367;51.930;8.112;2023-04-20T18:32:44;101137.03;;;8.65;78.67
35224;BME280;21367;51.930;8.112;2023-04-20T18:37:48;101143.56;;;8.45;79.69
35224;BME280;21367;51.930;8.112;2023-04-20T18:42:53;101137.09;;;8.37;80.40
35224;BME280;21367;51.930;8.112;2023-04-20T18:47:59;101137.88;;;8.36;80.97
35224;BME280;21367;51.930;8.112;2023-04-20T18:53:03;101136.97;;;8.21;82.25
35224;BME280;21367;51.930;8.112;2023-04-20T18:58:10;101143.56;;;8.30;82.59
35224;BME280;21367;51.930;8.112;2023-04-20T19:03:17;101147.16;;;8.19;83.00
35224;BME280;21367;51.930;8.112;2023-04-20T19:08:21;101146.69;;;8.26;83.06
35224;BME280;21367;51.930;8.112;2023-04-20T19:13:25;101142.69;;;8.60;82.31
35224;BME280;21367;51.930;8.112;2023-04-20T19:18:31;101142.47;;;8.27;83.93
35224;BME280;21367;51.930;8.112;2023-04-20T19:23:35;101136.75;;;8.31;84.15
35224;BME280;21367;51.930;8.112;2023-04-20T19:28:38;101133.63;;;8.37;83.90
35224;BME280;21367;51.930;8.112;2023-04-20T19:33:48;101139.81;;;8.10;85.80
35224;BME280;21367;51.930;8.112;2023-04-20T19:38:51;101144.47;;;8.18;85.23
35224;BME280;21367;51.930;8.112;2023-04-20T19:43:55;101143.00;;;8.21;85.64
35224;BME280;21367;51.930;8.112;2023-04-20T19:49:03;101130.72;;;8.16;86.20
35224;BME280;21367;51.930;8.112;2023-04-20T19:54:07;101122.34;;;8.33;85.86
35224;BME280;21367;51.930;8.112;2023-04-20T19:59:11;101122.28;;;8.46;85.46
